sensor_id;sensor_type;location;lat;lon;timestamp;P1;durP1;ratioP1;P2;durP2;ratioP2
16387;SDS011;8303;53.446;9.988;2023-06-19T04:41:16;131.23;;;123.85;;
16387;SDS011;8303;53.446;9.988;2023-06-19T04:43:43;145.80;;;137.90;;
16387;SDS011;8303;53.446;9.988;2023-06-19T04:46:10;146.05;;;137.85;;
16387;SDS011;8303;53.446;9.988;2023-06-19T04:48:38;156.40;;;147.88;;
16387;SDS011;8303;53.446;9.988;2023-06-19T04:51:06;139.23;;;130.88;;
16387;SDS011;8303;53.446;9.988;2023-06-19T04:53:33;143.70;;;135.82;;
16387;SDS011;8303;53.446;9.988;2023-06-19T04:55:59;161.00;;;152.18;;
16387;SDS011;8303;53.446;9.988;2023-06-19T04:58:28;156.40;;;147.88;;
16387;SDS011;8303;53.446;9.988;2023-06-19T05:00:54;151.85;;;143.52;;
16387;SDS011;8303;53.446;9.988;2023-06-19T05:03:21;149.20;;;141.15;;
16387;SDS011;8303;53.446;9.988;2023-06-19T05:05:48;159.05;;;150.57;;
16387;SDS011;8303;53.446;9.988;2023-06-19T05:08:15;173.32;;;163.93;;
16387;SDS011;8303;53.446;9.988;2023-06-19T05:10:42;140.77;;;133.05;;
16387;SDS011;8303;53.446;9.988;2023-06-19T05:13:09;156.95;;;148.15;;
16387;SDS011;8303;53.446;9.988;2023-06-19T05:15:37;158.77;;;150.18;;
16387;SDS011;8303;53.446;9.988;2023-06-19T05:18:04;140.68;;;132.75;;
16387;SDS011;8303;53.446;9.988;2023-06-19T05:20:31;156.98;;;148.13;;
16387;SDS011;8303;53.446;9.988;2023-06-19T05:22:57;154.77;;;146.32;;
16387;SDS011;8303;53.446;9.988;2023-06-19T05:25:24;157.07;;;148.52;;
16387;SDS011;8303;53.446;9.988;2023-06-19T05:27:52;145.77;;;137.93;;
16387;SDS011;8303;53.446;9.988;2023-06-19T05:30:19;153.88;;;145.55;;
16387;SDS011;8303;53.446;9.988;2023-06-19T05:32:47;141.13;;;133.20;;
16387;SDS011;8303;53.446;9.988;2023-06-19T05:35:14;147.85;;;139.77;;
16387;SDS011;8303;53.446;9.988;2023-06-19T05:37:41;149.48;;;141.25;;
16387;SDS011;8303;53.446;9.988;2023-06-19T05:40:09;154.52;;;145.82;;
16387;SDS011;8303;53.446;9.988;2023-06-19T05:42:36;151.23;;;143.13;;
16387;SDS011;8303;53.446;9.988;2023-06-19T05:45:03;141.32;;;133.57;;
16387;SDS011;8303;53.446;9.988;2023-06-19T05:47:30;151.77;;;143.52;;
16387;SDS011;8303;53.446;9.988;2023-06-19T05:49:59;158.52;;;149.85;;
16387;SDS011;8303;53.446;9.988;2023-06-19T05:52:26;159.00;;;149.95;;
16387;SDS011;8303;53.446;9.988;2023-06-19T05:54:52;152.98;;;144.48;;
16387;SDS011;8303;53.446;9.988;2023-06-19T05:57:19;143.35;;;135.57;;
16387;SDS011;8303;53.446;9.988;2023-06-19T05:59:46;136.18;;;128.73;;
16387;SDS011;8303;53.446;9.988;2023-06-19T06:02:13;140.55;;;132.95;;
16387;SDS011;8303;53.446;9.988;2023-06-19T06:04:40;150.25;;;141.90;;
16387;SDS011;8303;53.446;9.988;2023-06-19T06:07:08;129.70;;;122.43;;
16387;SDS011;8303;53.446;9.988;2023-06-19T06:09:35;165.40;;;156.43;;
16387;SDS011;8303;53.446;9.988;2023-06-19T06:12:02;158.57;;;149.95;;
16387;SDS011;8303;53.446;9.988;2023-06-19T06:14:30;152.15;;;143.77;;
16387;SDS011;8303;53.446;9.988;2023-06-19T06:16:57;151.52;;;143.23;;
16387;SDS011;8303;53.446;9.988;2023-06-19T06:19:24;153.45;;;145.07;;
16387;SDS011;8303;53.446;9.988;2023-06-19T06:21:51;137.75;;;130.13;;
16387;SDS011;8303;53.446;9.988;2023-06-19T06:24:19;130.25;;;123.03;;
16387;SDS011;8303;53.446;9.988;2023-06-19T06:26:46;115.82;;;109.13;;
16387;SDS011;8303;53.446;9.988;2023-06-19T06:29:13;117.15;;;110.50;;
16387;SDS011;8303;53.446;9.988;2023-06-19T06:31:39;96.22;;;90.45;;
16387;SDS011;8303;53.446;9.988;2023-06-19T06:34:06;76.40;;;71.80;;
16387;SDS011;8303;53.446;9.988;2023-06-19T06:36:33;47.17;;;44.08;;
16387;SDS011;8303;53.446;9.988;2023-06-19T06:39:00;38.28;;;35.58;;
16387;SDS011;8303;53.446;9.988;2023-06-19T06:41:29;43.42;;;40.25;;
16387;SDS011;8303;53.446;9.988;2023-06-19T06:43:55;41.10;;;37.95;;
16387;SDS011;8303;53.446;9.988;2023-06-19T06:46:22;38.65;;;35.95;;
16387;SDS011;8303;53.446;9.988;2023-06-19T06:48:49;49.25;;;45.85;;
16387;SDS011;8303;53.446;9.988;2023-06-19T06:51:16;45.45;;;42.17;;
16387;SDS011;8303;53.446;9.988;2023-06-19T06:53:43;47.28;;;44.00;;
16387;SDS011;8303;53.446;9.988;2023-06-19T06:56:11;40.50;;;37.40;;
16387;SDS011;8303;53.446;9.988;2023-06-19T06:58:39;41.42;;;38.45;;
16387;SDS011;8303;53.446;9.988;2023-06-19T07:01:06;41.97;;;38.97;;
16387;SDS011;8303;53.446;9.988;2023-06-19T07:03:33;39.75;;;36.97;;
16387;SDS011;8303;53.446;9.988;2023-06-19T07:05:59;45.50;;;41.97;;
16387;SDS011;8303;53.446;9.988;2023-06-19T07:08:27;49.40;;;46.03;;
16387;SDS011;8303;53.446;9.988;2023-06-19T07:10:54;51.58;;;48.10;;
16387;SDS011;8303;53.446;9.988;2023-06-19T07:13:21;46.70;;;43.35;;
16387;SDS011;8303;53.446;9.988;2023-06-19T07:15:49;60.70;;;56.90;;
16387;SDS011;8303;53.446;9.988;2023-06-19T07:18:16;55.47;;;51.50;;
16387;SDS011;8303;53.446;9.988;2023-06-19T07:20:43;100.43;;;94.50;;
16387;SDS011;8303;53.446;9.988;2023-06-19T07:23:10;138.75;;;130.88;;
16387;SDS011;8303;53.446;9.988;2023-06-19T07:25:37;144.88;;;136.65;;
16387;SDS011;8303;53.446;9.988;2023-06-19T07:28:04;166.95;;;157.50;;
16387;SDS011;8303;53.446;9.988;2023-06-19T07:30:31;173.18;;;164.00;;
16387;SDS011;8303;53.446;9.988;2023-06-19T07:32:59;161.63;;;152.68;;
16387;SDS011;8303;53.446;9.988;2023-06-19T07:35:26;166.38;;;157.00;;
16387;SDS011;8303;53.446;9.988;2023-06-19T07:37:54;162.77;;;153.90;;
16387;SDS011;8303;53.446;9.988;2023-06-19T07:40:24;143.27;;;135.18;;
16387;SDS011;8303;53.446;9.988;2023-06-19T07:42:51;141.23;;;133.35;;
16387;SDS011;8303;53.446;9.988;2023-06-19T07:45:18;134.75;;;127.18;;
16387;SDS011;8303;53.446;9.988;2023-06-19T07:47:54;99.60;;;93.93;;
16387;SDS011;8303;53.446;9.988;2023-06-19T07:50:30;99.72;;;93.93;;
16387;SDS011;8303;53.446;9.988;2023-06-19T07:52:57;107.13;;;100.82;;
16387;SDS011;8303;53.446;9.988;2023-06-19T07:55:24;118.03;;;110.97;;
16387;SDS011;8303;53.446;9.988;2023-06-19T07:57:50;144.57;;;136.13;;
16387;SDS011;8303;53.446;9.988;2023-06-19T08:00:21;80.20;;;75.30;;
16387;SDS011;8303;53.446;9.988;2023-06-19T08:02:48;64.45;;;60.05;;
16387;SDS011;8303;53.446;9.988;2023-06-19T08:05:17;65.20;;;61.17;;
16387;SDS011;8303;53.446;9.988;2023-06-19T08:07:44;57.03;;;53.22;;
16387;SDS011;8303;53.446;9.988;2023-06-19T08:10:11;51.88;;;48.33;;
16387;SDS011;8303;53.446;9.988;2023-06-19T08:12:38;27.00;;;24.95;;
16387;SDS011;8303;53.446;9.988;2023-06-19T08:15:07;21.05;;;18.92;;
16387;SDS011;8303;53.446;9.988;2023-06-19T08:17:35;29.83;;;27.52;;
16387;SDS011;8303;53.446;9.988;2023-06-19T08:20:02;20.67;;;18.77;;
16387;SDS011;8303;53.446;9.988;2023-06-19T08:22:31;20.08;;;18.02;;
16387;SDS011;8303;53.446;9.988;2023-06-19T08:24:58;19.17;;;17.58;;
16387;SDS011;8303;53.446;9.988;2023-06-19T08:27:25;20.58;;;18.85;;
16387;SDS011;8303;53.446;9.988;2023-06-19T08:29:52;18.98;;;17.48;;
16387;SDS011;8303;53.446;9.988;2023-06-19T08:32:19;18.00;;;16.50;;
16387;SDS011;8303;53.446;9.988;2023-06-19T08:34:46;19.52;;;17.50;;
16387;SDS011;8303;53.446;9.988;2023-06-19T08:37:13;18.48;;;16.88;;
16387;SDS011;8303;53.446;9.988;2023-06-19T08:39:41;20.25;;;18.25;;
16387;SDS011;8303;53.446;9.988;2023-06-19T08:42:09;23.58;;;21.50;;
16387;SDS011;8303;53.446;9.988;2023-06-19T08:44:36;28.70;;;26.40;;
16387;SDS011;8303;53.446;9.988;2023-06-19T08:47:03;39.25;;;36.15;;
16387;SDS011;8303;53.446;9.988;2023-06-19T08:49:31;20.48;;;18.77;;
16387;SDS011;8303;53.446;9.988;2023-06-19T08:51:59;19.52;;;17.75;;
16387;SDS011;8303;53.446;9.988;2023-06-19T08:54:27;20.70;;;18.90;;
16387;SDS011;8303;53.446;9.988;2023-06-19T08:56:55;18.95;;;17.25;;
16387;SDS011;8303;53.446;9.988;2023-06-19T08:59:25;20.00;;;18.38;;
16387;SDS011;8303;53.446;9.988;2023-06-19T09:01:53;20.23;;;18.33;;
16387;SDS011;8303;53.446;9.988;2023-06-19T09:04:21;21.08;;;18.75;;
16387;SDS011;8303;53.446;9.988;2023-06-19T09:06:51;19.30;;;17.67;;
16387;SDS011;8303;53.446;9.988;2023-06-19T09:09:20;20.08;;;18.27;;
16387;SDS011;8303;53.446;9.988;2023-06-19T09:11:59;24.65;;;22.55;;
16387;SDS011;8303;53.446;9.988;2023-06-19T09:14:31;22.13;;;20.42;;
16387;SDS011;8303;53.446;9.988;2023-06-19T09:17:00;25.23;;;23.33;;
16387;SDS011;8303;53.446;9.988;2023-06-19T09:19:28;26.48;;;24.25;;
16387;SDS011;8303;53.446;9.988;2023-06-19T09:21:59;23.58;;;21.58;;
16387;SDS011;8303;53.446;9.988;2023-06-19T09:24:32;24.65;;;22.63;;
16387;SDS011;8303;53.446;9.988;2023-06-19T09:27:06;24.50;;;22.42;;
16387;SDS011;8303;53.446;9.988;2023-06-19T09:29:36;23.95;;;22.02;;
16387;SDS011;8303;53.446;9.988;2023-06-19T09:32:13;25.27;;;23.17;;
16387;SDS011;8303;53.446;9.988;2023-06-19T09:34:41;25.00;;;22.52;;
16387;SDS011;8303;53.446;9.988;2023-06-19T09:37:08;26.13;;;24.13;;
16387;SDS011;8303;53.446;9.988;2023-06-19T09:39:36;26.20;;;24.10;;
16387;SDS011;8303;53.446;9.988;2023-06-19T09:42:04;27.63;;;25.52;;
16387;SDS011;8303;53.446;9.988;2023-06-19T09:44:38;29.75;;;27.75;;
16387;SDS011;8303;53.446;9.988;2023-06-19T09:47:09;29.10;;;26.88;;
16387;SDS011;8303;53.446;9.988;2023-06-19T09:49:44;28.80;;;26.70;;
16387;SDS011;8303;53.446;9.988;2023-06-19T09:52:14;26.63;;;24.70;;
16387;SDS011;8303;53.446;9.988;2023-06-19T09:54:41;22.35;;;20.55;;
16387;SDS011;8303;53.446;9.988;2023-06-19T09:57:11;24.42;;;22.55;;
16387;SDS011;8303;53.446;9.988;2023-06-19T09:59:38;20.88;;;19.25;;
16387;SDS011;8303;53.446;9.988;2023-06-19T10:02:07;15.80;;;14.50;;
16387;SDS011;8303;53.446;9.988;2023-06-19T10:04:41;19.98;;;18.48;;
16387;SDS011;8303;53.446;9.988;2023-06-19T10:07:14;20.60;;;19.10;;
16387;SDS011;8303;53.446;9.988;2023-06-19T10:09:54;19.65;;;17.92;;
16387;SDS011;8303;53.446;9.988;2023-06-19T10:12:33;16.88;;;15.18;;
16387;SDS011;8303;53.446;9.988;2023-06-19T10:15:07;21.05;;;19.20;;
16387;SDS011;8303;53.446;9.988;2023-06-19T10:17:35;19.35;;;17.75;;
16387;SDS011;8303;53.446;9.988;2023-06-19T10:20:03;29.58;;;27.55;;
16387;SDS011;8303;53.446;9.988;2023-06-19T10:22:38;24.70;;;22.92;;
16387;SDS011;8303;53.446;9.988;2023-06-19T10:25:19;22.45;;;20.85;;
16387;SDS011;8303;53.446;9.988;2023-06-19T10:27:48;18.85;;;17.25;;
16387;SDS011;8303;53.446;9.988;2023-06-19T10:30:17;17.25;;;15.55;;
16387;SDS011;8303;53.446;9.988;2023-06-19T10:32:45;23.10;;;21.05;;
16387;SDS011;8303;53.446;9.988;2023-06-19T10:35:13;17.67;;;16.27;;
16387;SDS011;8303;53.446;9.988;2023-06-19T10:37:41;18.17;;;16.58;;
16387;SDS011;8303;53.446;9.988;2023-06-19T10:40:09;17.88;;;16.25;;
16387;SDS011;8303;53.446;9.988;2023-06-19T10:42:37;18.60;;;17.10;;
16387;SDS011;8303;53.446;9.988;2023-06-19T10:45:07;17.88;;;16.52;;
16387;SDS011;8303;53.446;9.988;2023-06-19T10:47:37;19.65;;;18.25;;
16387;SDS011;8303;53.446;9.988;2023-06-19T10:50:05;18.30;;;16.77;;
16387;SDS011;8303;53.446;9.988;2023-06-19T10:52:36;17.35;;;15.55;;
16387;SDS011;8303;53.446;9.988;2023-06-19T10:55:06;16.92;;;15.40;;
16387;SDS011;8303;53.446;9.988;2023-06-19T10:57:33;20.02;;;18.20;;
16387;SDS011;8303;53.446;9.988;2023-06-19T11:00:00;18.67;;;17.27;;
16387;SDS011;8303;53.446;9.988;2023-06-19T11:02:34;19.50;;;17.73;;
16387;SDS011;8303;53.446;9.988;2023-06-19T11:05:02;18.20;;;16.50;;
16387;SDS011;8303;53.446;9.988;2023-06-19T11:07:30;17.77;;;16.38;;
16387;SDS011;8303;53.446;9.988;2023-06-19T11:09:58;23.02;;;21.23;;
16387;SDS011;8303;53.446;9.988;2023-06-19T11:12:25;30.15;;;28.15;;
16387;SDS011;8303;53.446;9.988;2023-06-19T11:14:52;28.58;;;26.58;;
16387;SDS011;8303;53.446;9.988;2023-06-19T11:17:18;30.58;;;28.50;;
16387;SDS011;8303;53.446;9.988;2023-06-19T11:19:48;25.80;;;24.00;;
16387;SDS011;8303;53.446;9.988;2023-06-19T11:22:16;30.65;;;28.55;;
16387;SDS011;8303;53.446;9.988;2023-06-19T11:24:43;30.08;;;27.83;;
16387;SDS011;8303;53.446;9.988;2023-06-19T11:27:17;29.52;;;27.63;;
16387;SDS011;8303;53.446;9.988;2023-06-19T11:29:44;29.83;;;27.65;;
16387;SDS011;8303;53.446;9.988;2023-06-19T11:32:12;25.02;;;23.05;;
16387;SDS011;8303;53.446;9.988;2023-06-19T11:34:41;32.10;;;30.00;;
16387;SDS011;8303;53.446;9.988;2023-06-19T11:37:14;31.38;;;29.10;;
16387;SDS011;8303;53.446;9.988;2023-06-19T11:39:43;23.95;;;22.27;;
16387;SDS011;8303;53.446;9.988;2023-06-19T11:42:10;26.30;;;24.45;;
16387;SDS011;8303;53.446;9.988;2023-06-19T11:44:52;25.58;;;23.55;;
16387;SDS011;8303;53.446;9.988;2023-06-19T11:47:19;27.75;;;25.73;;
16387;SDS011;8303;53.446;9.988;2023-06-19T11:49:47;28.08;;;26.17;;
16387;SDS011;8303;53.446;9.988;2023-06-19T11:52:16;24.55;;;22.95;;
16387;SDS011;8303;53.446;9.988;2023-06-19T11:54:43;28.98;;;26.85;;
16387;SDS011;8303;53.446;9.988;2023-06-19T11:57:09;30.20;;;28.23;;
16387;SDS011;8303;53.446;9.988;2023-06-19T11:59:38;32.80;;;30.73;;
16387;SDS011;8303;53.446;9.988;2023-06-19T12:02:05;30.60;;;28.63;;
16387;SDS011;8303;53.446;9.988;2023-06-19T12:04:32;32.28;;;30.10;;
16387;SDS011;8303;53.446;9.988;2023-06-19T12:06:59;32.42;;;30.42;;
16387;SDS011;8303;53.446;9.988;2023-06-19T12:09:30;26.30;;;24.65;;
16387;SDS011;8303;53.446;9.988;2023-06-19T12:11:57;17.70;;;16.50;;
16387;SDS011;8303;53.446;9.988;2023-06-19T12:14:25;24.38;;;22.67;;
16387;SDS011;8303;53.446;9.988;2023-06-19T12:16:52;23.67;;;22.17;;
16387;SDS011;8303;53.446;9.988;2023-06-19T12:19:19;18.13;;;16.63;;
16387;SDS011;8303;53.446;9.988;2023-06-19T12:21:46;17.05;;;15.57;;
16387;SDS011;8303;53.446;9.988;2023-06-19T12:24:13;15.00;;;14.00;;
16387;SDS011;8303;53.446;9.988;2023-06-19T12:26:41;16.23;;;14.93;;
16387;SDS011;8303;53.446;9.988;2023-06-19T12:29:08;14.73;;;13.63;;
16387;SDS011;8303;53.446;9.988;2023-06-19T12:31:35;15.18;;;13.90;;
16387;SDS011;8303;53.446;9.988;2023-06-19T12:34:02;14.15;;;13.05;;
16387;SDS011;8303;53.446;9.988;2023-06-19T12:36:30;15.45;;;14.25;;
16387;SDS011;8303;53.446;9.988;2023-06-19T12:38:58;17.08;;;15.85;;
16387;SDS011;8303;53.446;9.988;2023-06-19T12:41:25;15.93;;;14.73;;
16387;SDS011;8303;53.446;9.988;2023-06-19T12:43:53;15.80;;;14.60;;
16387;SDS011;8303;53.446;9.988;2023-06-19T12:46:20;14.98;;;13.82;;
16387;SDS011;8303;53.446;9.988;2023-06-19T12:48:47;16.48;;;15.05;;
16387;SDS011;8303;53.446;9.988;2023-06-19T12:51:16;15.93;;;14.65;;
16387;SDS011;8303;53.446;9.988;2023-06-19T12:53:43;15.43;;;14.23;;
16387;SDS011;8303;53.446;9.988;2023-06-19T12:56:10;16.15;;;14.85;;
16387;SDS011;8303;53.446;9.988;2023-06-19T12:58:37;14.10;;;12.88;;
16387;SDS011;8303;53.446;9.988;2023-06-19T13:01:05;14.30;;;13.30;;
16387;SDS011;8303;53.446;9.988;2023-06-19T13:03:32;13.15;;;12.00;;
16387;SDS011;8303;53.446;9.988;2023-06-19T13:05:59;13.95;;;12.95;;
16387;SDS011;8303;53.446;9.988;2023-06-19T13:08:26;12.73;;;11.82;;
16387;SDS011;8303;53.446;9.988;2023-06-19T13:10:53;12.73;;;11.77;;
16387;SDS011;8303;53.446;9.988;2023-06-19T13:13:19;14.80;;;13.63;;
16387;SDS011;8303;53.446;9.988;2023-06-19T13:15:46;15.48;;;14.23;;
16387;SDS011;8303;53.446;9.988;2023-06-19T13:18:15;26.33;;;24.60;;
16387;SDS011;8303;53.446;9.988;2023-06-19T13:20:41;17.05;;;16.00;;
16387;SDS011;8303;53.446;9.988;2023-06-19T13:23:10;19.52;;;18.15;;
16387;SDS011;8303;53.446;9.988;2023-06-19T13:25:36;15.15;;;14.20;;
16387;SDS011;8303;53.446;9.988;2023-06-19T13:28:03;15.35;;;14.30;;
16387;SDS011;8303;53.446;9.988;2023-06-19T13:30:30;13.38;;;12.50;;
16387;SDS011;8303;53.446;9.988;2023-06-19T13:32:57;15.00;;;13.85;;
16387;SDS011;8303;53.446;9.988;2023-06-19T13:35:25;13.30;;;12.40;;
16387;SDS011;8303;53.446;9.988;2023-06-19T13:37:52;14.73;;;13.38;;
16387;SDS011;8303;53.446;9.988;2023-06-19T13:40:19;14.57;;;13.35;;
16387;SDS011;8303;53.446;9.988;2023-06-19T13:42:46;14.20;;;12.82;;
16387;SDS011;8303;53.446;9.988;2023-06-19T13:45:13;16.77;;;15.45;;
16387;SDS011;8303;53.446;9.988;2023-06-19T13:47:39;28.70;;;26.90;;
16387;SDS011;8303;53.446;9.988;2023-06-19T13:50:07;35.00;;;32.97;;
16387;SDS011;8303;53.446;9.988;2023-06-19T13:52:35;36.22;;;33.92;;
16387;SDS011;8303;53.446;9.988;2023-06-19T13:55:03;21.30;;;19.77;;
16387;SDS011;8303;53.446;9.988;2023-06-19T13:57:30;23.77;;;22.38;;
16387;SDS011;8303;53.446;9.988;2023-06-19T13:59:57;16.75;;;15.45;;
16387;SDS011;8303;53.446;9.988;2023-06-19T14:02:24;29.95;;;27.90;;
16387;SDS011;8303;53.446;9.988;2023-06-19T14:04:50;29.10;;;27.13;;
16387;SDS011;8303;53.446;9.988;2023-06-19T14:07:17;21.63;;;20.13;;
16387;SDS011;8303;53.446;9.988;2023-06-19T14:09:48;35.75;;;32.30;;
16387;SDS011;8303;53.446;9.988;2023-06-19T14:12:18;28.45;;;26.42;;
16387;SDS011;8303;53.446;9.988;2023-06-19T14:14:45;31.50;;;29.40;;
16387;SDS011;8303;53.446;9.988;2023-06-19T14:17:12;28.55;;;26.90;;
16387;SDS011;8303;53.446;9.988;2023-06-19T14:19:40;29.77;;;28.05;;
16387;SDS011;8303;53.446;9.988;2023-06-19T14:22:07;20.48;;;19.05;;
16387;SDS011;8303;53.446;9.988;2023-06-19T14:24:33;14.23;;;13.27;;
16387;SDS011;8303;53.446;9.988;2023-06-19T14:27:02;13.07;;;12.18;;
16387;SDS011;8303;53.446;9.988;2023-06-19T14:29:29;17.45;;;16.02;;
16387;SDS011;8303;53.446;9.988;2023-06-19T14:31:56;13.80;;;12.55;;
16387;SDS011;8303;53.446;9.988;2023-06-19T14:34:23;15.02;;;10.68;;
16387;SDS011;8303;53.446;9.988;2023-06-19T14:36:50;12.27;;;11.38;;
16387;SDS011;8303;53.446;9.988;2023-06-19T14:39:17;14.75;;;11.63;;
16387;SDS011;8303;53.446;9.988;2023-06-19T14:41:44;13.50;;;12.50;;
16387;SDS011;8303;53.446;9.988;2023-06-19T14:44:12;19.25;;;18.00;;
16387;SDS011;8303;53.446;9.988;2023-06-19T14:46:40;12.93;;;12.02;;
16387;SDS011;8303;53.446;9.988;2023-06-19T14:49:07;14.60;;;13.55;;
16387;SDS011;8303;53.446;9.988;2023-06-19T14:51:37;15.27;;;14.15;;
16387;SDS011;8303;53.446;9.988;2023-06-19T14:54:04;19.98;;;18.48;;
16387;SDS011;8303;53.446;9.988;2023-06-19T14:56:31;21.35;;;19.85;;
16387;SDS011;8303;53.446;9.988;2023-06-19T14:58:58;30.55;;;28.80;;
16387;SDS011;8303;53.446;9.988;2023-06-19T15:01:27;32.67;;;30.67;;
16387;SDS011;8303;53.446;9.988;2023-06-19T15:03:53;22.73;;;20.98;;
16387;SDS011;8303;53.446;9.988;2023-06-19T15:06:20;34.92;;;32.88;;
16387;SDS011;8303;53.446;9.988;2023-06-19T15:08:47;33.38;;;31.42;;
16387;SDS011;8303;53.446;9.988;2023-06-19T15:11:14;37.15;;;34.95;;
16387;SDS011;8303;53.446;9.988;2023-06-19T15:13:41;32.70;;;30.88;;
16387;SDS011;8303;53.446;9.988;2023-06-19T15:16:08;23.00;;;21.60;;
16387;SDS011;8303;53.446;9.988;2023-06-19T15:18:38;15.00;;;13.90;;
16387;SDS011;8303;53.446;9.988;2023-06-19T15:21:06;24.95;;;23.55;;
16387;SDS011;8303;53.446;9.988;2023-06-19T15:23:33;32.20;;;30.38;;
16387;SDS011;8303;53.446;9.988;2023-06-19T15:26:00;27.98;;;25.98;;
16387;SDS011;8303;53.446;9.988;2023-06-19T15:28:27;30.75;;;28.88;;
16387;SDS011;8303;53.446;9.988;2023-06-19T15:30:54;25.75;;;24.13;;
16387;SDS011;8303;53.446;9.988;2023-06-19T15:33:21;27.00;;;25.30;;
16387;SDS011;8303;53.446;9.988;2023-06-19T15:35:49;34.20;;;32.10;;
16387;SDS011;8303;53.446;9.988;2023-06-19T15:38:16;25.80;;;24.30;;
16387;SDS011;8303;53.446;9.988;2023-06-19T15:40:43;14.15;;;13.10;;
16387;SDS011;8303;53.446;9.988;2023-06-19T15:43:11;16.73;;;15.63;;
16387;SDS011;8303;53.446;9.988;2023-06-19T15:45:38;34.55;;;32.50;;
16387;SDS011;8303;53.446;9.988;2023-06-19T15:48:05;23.85;;;22.27;;
16387;SDS011;8303;53.446;9.988;2023-06-19T15:50:32;25.17;;;23.48;;
16387;SDS011;8303;53.446;9.988;2023-06-19T15:53:00;34.08;;;31.90;;
16387;SDS011;8303;53.446;9.988;2023-06-19T15:55:27;13.85;;;12.75;;
16387;SDS011;8303;53.446;9.988;2023-06-19T15:57:54;12.68;;;11.57;;
16387;SDS011;8303;53.446;9.988;2023-06-19T16:00:21;12.77;;;11.77;;
16387;SDS011;8303;53.446;9.988;2023-06-19T16:02:48;13.60;;;12.40;;
16387;SDS011;8303;53.446;9.988;2023-06-19T16:05:15;11.52;;;10.73;;
16387;SDS011;8303;53.446;9.988;2023-06-19T16:07:41;12.27;;;11.32;;
16387;SDS011;8303;53.446;9.988;2023-06-19T16:10:10;11.07;;;10.25;;
16387;SDS011;8303;53.446;9.988;2023-06-19T16:12:37;10.75;;;9.95;;
16387;SDS011;8303;53.446;9.988;2023-06-19T16:15:04;11.00;;;9.88;;
16387;SDS011;8303;53.446;9.988;2023-06-19T16:17:34;12.50;;;11.57;;
16387;SDS011;8303;53.446;9.988;2023-06-19T16:20:02;12.20;;;11.18;;
16387;SDS011;8303;53.446;9.988;2023-06-19T16:22:30;11.55;;;10.65;;
16387;SDS011;8303;53.446;9.988;2023-06-19T16:24:56;11.80;;;10.88;;
16387;SDS011;8303;53.446;9.988;2023-06-19T16:27:25;11.23;;;10.32;;
16387;SDS011;8303;53.446;9.988;2023-06-19T16:29:52;11.32;;;10.43;;
16387;SDS011;8303;53.446;9.988;2023-06-19T16:32:19;11.07;;;10.18;;
16387;SDS011;8303;53.446;9.988;2023-06-19T16:34:45;12.68;;;11.05;;
16387;SDS011;8303;53.446;9.988;2023-06-19T16:37:12;19.13;;;17.90;;
16387;SDS011;8303;53.446;9.988;2023-06-19T16:39:39;28.77;;;27.08;;
16387;SDS011;8303;53.446;9.988;2023-06-19T16:42:06;28.08;;;26.42;;
16387;SDS011;8303;53.446;9.988;2023-06-19T16:44:35;33.13;;;31.10;;
16387;SDS011;8303;53.446;9.988;2023-06-19T16:47:02;14.32;;;12.00;;
16387;SDS011;8303;53.446;9.988;2023-06-19T16:49:29;11.43;;;10.52;;
16387;SDS011;8303;53.446;9.988;2023-06-19T16:51:55;11.85;;;11.05;;
16387;SDS011;8303;53.446;9.988;2023-06-19T16:54:22;27.55;;;25.88;;
16387;SDS011;8303;53.446;9.988;2023-06-19T16:56:49;31.38;;;29.60;;
16387;SDS011;8303;53.446;9.988;2023-06-19T17:01:51;29.17;;;27.33;;
16387;SDS011;8303;53.446;9.988;2023-06-19T17:04:19;21.05;;;19.80;;
16387;SDS011;8303;53.446;9.988;2023-06-19T17:06:46;16.95;;;15.55;;
16387;SDS011;8303;53.446;9.988;2023-06-19T17:09:13;22.73;;;21.35;;
16387;SDS011;8303;53.446;9.988;2023-06-19T17:11:40;15.75;;;14.77;;
16387;SDS011;8303;53.446;9.988;2023-06-19T17:14:07;16.23;;;15.13;;
16387;SDS011;8303;53.446;9.988;2023-06-19T17:16:34;15.05;;;13.95;;
16387;SDS011;8303;53.446;9.988;2023-06-19T17:19:02;14.73;;;13.73;;
16387;SDS011;8303;53.446;9.988;2023-06-19T17:21:31;22.45;;;20.95;;
16387;SDS011;8303;53.446;9.988;2023-06-19T17:23:58;27.77;;;26.05;;
16387;SDS011;8303;53.446;9.988;2023-06-19T17:26:25;14.45;;;13.45;;
16387;SDS011;8303;53.446;9.988;2023-06-19T17:28:52;19.95;;;18.55;;
16387;SDS011;8303;53.446;9.988;2023-06-19T17:31:19;26.25;;;24.65;;
16387;SDS011;8303;53.446;9.988;2023-06-19T17:33:46;17.85;;;16.75;;
16387;SDS011;8303;53.446;9.988;2023-06-19T17:36:14;14.70;;;13.60;;
16387;SDS011;8303;53.446;9.988;2023-06-19T17:38:41;17.70;;;16.58;;
16387;SDS011;8303;53.446;9.988;2023-06-19T17:41:08;25.10;;;23.38;;
16387;SDS011;8303;53.446;9.988;2023-06-19T17:43:35;31.48;;;29.58;;
16387;SDS011;8303;53.446;9.988;2023-06-19T17:46:02;34.97;;;32.90;;
16387;SDS011;8303;53.446;9.988;2023-06-19T17:48:29;32.95;;;31.05;;
16387;SDS011;8303;53.446;9.988;2023-06-19T17:50:56;42.05;;;39.58;;
16387;SDS011;8303;53.446;9.988;2023-06-19T17:53:24;17.70;;;16.27;;
16387;SDS011;8303;53.446;9.988;2023-06-19T17:55:51;15.23;;;14.18;;
16387;SDS011;8303;53.446;9.988;2023-06-19T17:58:18;20.15;;;18.88;;
16387;SDS011;8303;53.446;9.988;2023-06-19T18:00:46;26.95;;;25.33;;
16387;SDS011;8303;53.446;9.988;2023-06-19T18:03:13;29.52;;;27.73;;
16387;SDS011;8303;53.446;9.988;2023-06-19T18:05:40;36.55;;;34.45;;
16387;SDS011;8303;53.446;9.988;2023-06-19T18:08:07;37.95;;;35.00;;
16387;SDS011;8303;53.446;9.988;2023-06-19T18:10:35;36.45;;;34.22;;
16387;SDS011;8303;53.446;9.988;2023-06-19T18:13:02;37.03;;;34.90;;
16387;SDS011;8303;53.446;9.988;2023-06-19T18:15:29;37.67;;;35.28;;
16387;SDS011;8303;53.446;9.988;2023-06-19T18:17:56;34.00;;;31.90;;
16387;SDS011;8303;53.446;9.988;2023-06-19T18:20:23;32.85;;;30.92;;
16387;SDS011;8303;53.446;9.988;2023-06-19T18:22:50;31.40;;;29.40;;
16387;SDS011;8303;53.446;9.988;2023-06-19T18:25:16;26.73;;;25.05;;
16387;SDS011;8303;53.446;9.988;2023-06-19T18:27:45;22.63;;;21.02;;
16387;SDS011;8303;53.446;9.988;2023-06-19T18:30:12;19.90;;;18.33;;
16387;SDS011;8303;53.446;9.988;2023-06-19T18:32:38;16.88;;;15.32;;
16387;SDS011;8303;53.446;9.988;2023-06-19T18:35:05;16.75;;;15.45;;
16387;SDS011;8303;53.446;9.988;2023-06-19T18:37:33;16.23;;;14.73;;
16387;SDS011;8303;53.446;9.988;2023-06-19T18:40:00;17.38;;;16.15;;
16387;SDS011;8303;53.446;9.988;2023-06-19T18:42:27;24.30;;;22.25;;
16387;SDS011;8303;53.446;9.988;2023-06-19T18:44:56;59.35;;;55.97;;
16387;SDS011;8303;53.446;9.988;2023-06-19T18:47:22;72.95;;;68.95;;
16387;SDS011;8303;53.446;9.988;2023-06-19T18:49:49;74.57;;;70.45;;
16387;SDS011;8303;53.446;9.988;2023-06-19T18:52:16;87.60;;;82.80;;
16387;SDS011;8303;53.446;9.988;2023-06-19T18:54:43;46.42;;;43.67;;
16387;SDS011;8303;53.446;9.988;2023-06-19T18:57:10;47.50;;;44.55;;
16387;SDS011;8303;53.446;9.988;2023-06-19T18:59:37;82.20;;;77.43;;
16387;SDS011;8303;53.446;9.988;2023-06-19T19:02:05;68.75;;;64.68;;
16387;SDS011;8303;53.446;9.988;2023-06-19T19:04:34;72.07;;;68.03;;
16387;SDS011;8303;53.446;9.988;2023-06-19T19:07:02;74.43;;;70.15;;
16387;SDS011;8303;53.446;9.988;2023-06-19T19:09:29;112.63;;;106.20;;
16387;SDS011;8303;53.446;9.988;2023-06-19T19:11:56;93.68;;;88.53;;
16387;SDS011;8303;53.446;9.988;2023-06-19T19:14:23;155.10;;;146.82;;
16387;SDS011;8303;53.446;9.988;2023-06-19T19:16:50;181.75;;;172.13;;